createdAt,value
2018-04-22T00:01:44.078Z,8.60
2018-04-22T00:04:12.262Z,9.37
2018-04-22T00:06:40.186Z,8.50
2018-04-22T00:09:08.114Z,8.57
2018-04-22T00:11:36.062Z,8.37
2018-04-22T00:14:04.087Z,8.80
2018-04-22T00:16:32.030Z,7.63
2018-04-22T00:18:59.955Z,7.83
2018-04-22T00:21:27.881Z,7.80
2018-04-22T00:24:03.026Z,8.40
2018-04-22T00:26:31.174Z,9.00
2018-04-22T00:28:59.125Z,8.50
2018-04-22T00:31:27.049Z,9.47
2018-04-22T00:33:54.982Z,8.90
2018-04-22T00:36:22.907Z,9.20
2018-04-22T00:38:50.861Z,8.97
2018-04-22T00:41:18.852Z,9.37
2018-04-22T00:43:46.809Z,8.97
2018-04-22T00:46:14.782Z,9.33
2018-04-22T00:48:42.685Z,8.60
2018-04-22T00:51:10.685Z,8.90
2018-04-22T00:53:44.773Z,9.40
2018-04-22T00:56:12.661Z,9.83
2018-04-22T00:58:40.599Z,8.93
2018-04-22T01:01:08.530Z,9.43
2018-04-22T01:03:36.440Z,10.87
2018-04-22T01:06:04.443Z,9.90
2018-04-22T01:08:32.394Z,12.33
2018-04-22T01:11:00.374Z,15.20
2018-04-22T01:13:28.314Z,12.90
2018-04-22T01:15:56.264Z,9.67
2018-04-22T01:18:24.190Z,10.57
2018-04-22T01:20:52.148Z,9.30
2018-04-22T01:23:20.117Z,8.73
2018-04-22T01:25:48.125Z,9.33
2018-04-22T01:28:16.098Z,8.07
2018-04-22T01:30:44.009Z,8.93
2018-04-22T01:33:11.937Z,8.20
2018-04-22T01:35:40.151Z,8.20
2018-04-22T01:38:08.049Z,8.47
2018-04-22T01:40:35.983Z,8.40
2018-04-22T01:43:03.909Z,8.73
2018-04-22T01:45:32.003Z,10.13
2018-04-22T01:47:59.937Z,10.07
2018-04-22T01:50:27.843Z,9.10
2018-04-22T01:52:55.746Z,10.70
2018-04-22T01:55:23.718Z,9.17
2018-04-22T01:57:51.717Z,9.57
2018-04-22T02:00:19.674Z,8.43
2018-04-22T02:02:47.625Z,8.73
2018-04-22T02:05:15.602Z,7.60
2018-04-22T02:07:43.607Z,8.03
2018-04-22T02:10:11.557Z,6.93
2018-04-22T02:12:39.680Z,7.17
2018-04-22T02:15:07.622Z,7.70
2018-04-22T02:17:35.538Z,8.30
2018-04-22T02:20:03.509Z,8.03
2018-04-22T02:22:31.446Z,7.63
2018-04-22T02:24:59.424Z,8.20
2018-04-22T02:27:27.330Z,8.07
2018-04-22T02:29:55.287Z,7.47
2018-04-22T02:32:23.202Z,8.23
2018-04-22T02:34:51.110Z,7.50
2018-04-22T02:37:19.099Z,8.23
2018-04-22T02:39:47.025Z,7.80
2018-04-22T02:42:14.946Z,8.80
2018-04-22T02:44:42.849Z,7.57
2018-04-22T02:47:10.805Z,8.60
2018-04-22T02:49:38.811Z,8.30
2018-04-22T02:52:06.734Z,7.90
2018-04-22T02:54:34.654Z,8.90
2018-04-22T02:57:02.574Z,8.47
2018-04-22T02:59:30.478Z,7.73
2018-04-22T03:01:58.389Z,9.30
2018-04-22T03:04:26.321Z,7.80
2018-04-22T03:06:54.318Z,8.80
2018-04-22T03:09:22.281Z,8.13
2018-04-22T03:11:50.210Z,9.30
2018-04-22T03:14:18.098Z,10.90
2018-04-22T03:16:46.074Z,10.63
2018-04-22T03:19:14.061Z,11.43
2018-04-22T03:21:41.996Z,14.30
2018-04-22T03:24:09.889Z,16.00
2018-04-22T03:26:37.834Z,12.63
2018-04-22T03:29:06.046Z,12.40
2018-04-22T03:31:33.973Z,12.60
2018-04-22T03:34:01.940Z,13.47
2018-04-22T03:36:29.886Z,12.40
2018-04-22T03:38:57.866Z,12.40
2018-04-22T03:41:25.807Z,10.50
2018-04-22T03:43:53.698Z,11.40
2018-04-22T03:46:21.667Z,8.90
2018-04-22T03:48:49.718Z,9.10
2018-04-22T03:51:17.659Z,9.80
2018-04-22T03:53:45.588Z,9.23
2018-04-22T03:56:13.533Z,8.53
2018-04-22T03:58:41.482Z,11.03
2018-04-22T04:01:09.466Z,9.90
2018-04-22T04:03:37.430Z,9.30
2018-04-22T04:06:05.434Z,8.93
2018-04-22T04:08:33.614Z,8.00
2018-04-22T04:11:01.610Z,7.83
2018-04-22T04:13:29.589Z,8.80
2018-04-22T04:15:57.569Z,9.13
2018-04-22T04:21:25.518Z,10.03
2018-04-22T04:24:08.377Z,9.50
2018-04-22T04:26:42.568Z,8.73
2018-04-22T04:29:10.518Z,9.10
2018-04-22T04:31:38.446Z,9.13
2018-04-22T04:34:06.410Z,8.33
2018-04-22T04:36:34.333Z,9.03
2018-04-22T04:39:02.332Z,8.10
2018-04-22T04:41:30.278Z,8.70
2018-04-22T04:43:58.165Z,8.27
2018-04-22T04:46:26.070Z,8.53
2018-04-22T04:48:54.024Z,8.80
2018-04-22T04:51:22.026Z,8.60
2018-04-22T04:53:49.978Z,9.67
2018-04-22T04:56:18.017Z,9.17
2018-04-22T04:58:45.986Z,8.60
2018-04-22T05:01:13.951Z,9.60
2018-04-22T05:03:41.874Z,10.53
2018-04-22T05:06:09.830Z,10.33
2018-04-22T05:08:37.802Z,9.47
2018-04-22T05:11:05.929Z,10.83
2018-04-22T05:13:34.106Z,9.57
2018-04-22T05:16:02.016Z,10.43
2018-04-22T05:18:29.992Z,10.57
2018-04-22T05:20:57.933Z,12.97
2018-04-22T05:23:25.882Z,12.90
2018-04-22T05:25:53.781Z,11.47
2018-04-22T05:28:21.726Z,10.30
2018-04-22T05:30:49.662Z,11.27
2018-04-22T05:33:17.856Z,10.70
2018-04-22T05:35:45.792Z,10.37
2018-04-22T05:38:13.745Z,9.90
2018-04-22T05:40:41.775Z,10.03
2018-04-22T05:43:09.734Z,10.73
2018-04-22T05:45:37.618Z,10.77
2018-04-22T05:48:05.558Z,11.37
2018-04-22T05:50:33.542Z,9.67
2018-04-22T05:53:01.546Z,10.10
2018-04-22T05:55:29.495Z,14.30
2018-04-22T05:57:57.385Z,12.30
2018-04-22T06:00:25.297Z,10.23
2018-04-22T06:02:53.246Z,9.80
2018-04-22T06:05:21.214Z,10.30
2018-04-22T06:07:49.185Z,9.83
2018-04-22T06:10:17.130Z,9.30
2018-04-22T06:12:45.254Z,9.43
2018-04-22T06:15:13.160Z,9.00
2018-04-22T06:17:41.154Z,7.60
2018-04-22T06:20:09.110Z,8.53
2018-04-22T06:22:37.115Z,7.60
2018-04-22T06:25:05.077Z,6.87
2018-04-22T06:27:33.005Z,7.37
2018-04-22T06:30:00.978Z,7.00
2018-04-22T06:32:28.969Z,7.40
2018-04-22T06:34:56.906Z,7.60
2018-04-22T06:37:24.891Z,6.83
2018-04-22T06:39:52.886Z,6.90
2018-04-22T06:42:20.833Z,7.40
2018-04-22T06:44:48.749Z,6.90
2018-04-22T06:47:16.699Z,6.97
2018-04-22T06:49:44.686Z,6.67
2018-04-22T06:52:12.686Z,6.70
2018-04-22T06:54:40.630Z,6.40
2018-04-22T06:57:08.550Z,5.77
2018-04-22T06:59:36.542Z,5.77
2018-04-22T07:02:04.539Z,5.63
2018-04-22T07:04:32.478Z,4.57
2018-04-22T07:07:00.447Z,5.50
2018-04-22T07:09:28.353Z,5.10
2018-04-22T07:11:56.294Z,5.23
2018-04-22T07:14:24.721Z,5.20
2018-04-22T07:16:52.658Z,5.20
2018-04-22T07:19:20.590Z,5.23
2018-04-22T07:21:48.591Z,3.57
2018-04-22T07:24:16.640Z,3.50
2018-04-22T07:26:51.581Z,4.20
2018-04-22T07:29:19.589Z,3.50
2018-04-22T07:31:47.551Z,3.10
2018-04-22T07:34:15.513Z,3.47
2018-04-22T07:36:43.457Z,3.73
2018-04-22T07:39:11.372Z,3.43
2018-04-22T07:41:39.317Z,2.93
2018-04-22T07:44:07.253Z,2.87
2018-04-22T07:46:35.197Z,2.80
2018-04-22T07:49:03.090Z,2.57
2018-04-22T07:51:31.001Z,3.03
2018-04-22T07:53:58.891Z,3.00
2018-04-22T07:56:26.814Z,3.00
2018-04-22T07:58:54.721Z,2.77
2018-04-22T08:01:22.645Z,2.10
2018-04-22T08:03:50.607Z,2.07
2018-04-22T08:06:18.538Z,2.80
2018-04-22T08:08:46.457Z,1.80
2018-04-22T08:11:14.369Z,1.70
2018-04-22T08:13:42.265Z,2.43
2018-04-22T08:16:10.369Z,2.73
2018-04-22T08:18:38.306Z,3.00
2018-04-22T08:21:06.211Z,2.63
2018-04-22T08:23:34.125Z,2.83
2018-04-22T08:26:02.080Z,3.17
2018-04-22T08:28:30.031Z,3.30
2018-04-22T08:30:57.891Z,3.33
2018-04-22T08:33:25.804Z,3.50
2018-04-22T08:36:00.738Z,2.80
2018-04-22T08:38:28.675Z,3.50
2018-04-22T08:40:56.582Z,2.83
2018-04-22T08:43:24.521Z,3.50
2018-04-22T08:45:52.490Z,4.73
2018-04-22T08:48:20.390Z,3.20
2018-04-22T08:50:48.319Z,3.13
2018-04-22T08:53:16.241Z,2.90
2018-04-22T08:55:44.149Z,3.23
2018-04-22T08:58:12.073Z,3.17
2018-04-22T09:00:39.996Z,3.00
2018-04-22T09:03:07.947Z,2.60
2018-04-22T09:05:35.850Z,3.03
2018-04-22T09:08:03.965Z,3.63
2018-04-22T09:10:31.917Z,3.50
2018-04-22T09:12:59.840Z,3.13
2018-04-22T09:15:27.802Z,2.67
2018-04-22T09:17:55.977Z,3.37
2018-04-22T09:20:23.882Z,3.10
2018-04-22T09:22:51.785Z,2.63
2018-04-22T09:25:19.721Z,3.17
2018-04-22T09:27:47.670Z,2.90
2018-04-22T09:30:15.553Z,3.30
2018-04-22T09:32:43.481Z,2.17
2018-04-22T09:35:11.481Z,2.77
2018-04-22T09:37:39.394Z,2.87
2018-04-22T09:40:07.312Z,3.03
2018-04-22T09:42:41.265Z,2.93
2018-04-22T09:45:09.179Z,3.37
2018-04-22T09:47:37.263Z,2.80
2018-04-22T09:50:05.217Z,2.50
2018-04-22T09:52:33.145Z,2.50
2018-04-22T09:55:01.056Z,2.73
2018-04-22T09:57:28.953Z,2.97
2018-04-22T09:59:56.890Z,2.90
2018-04-22T10:02:30.949Z,2.53
2018-04-22T10:05:05.278Z,3.23
2018-04-22T10:07:33.185Z,2.50
2018-04-22T10:10:01.104Z,2.67
2018-04-22T10:12:29.013Z,2.90
2018-04-22T10:14:56.925Z,2.53
2018-04-22T10:17:24.857Z,2.80
2018-04-22T10:19:54.425Z,2.40
2018-04-22T10:22:22.347Z,3.77
2018-04-22T10:24:50.244Z,2.47
2018-04-22T10:27:18.205Z,2.37
2018-04-22T10:29:46.208Z,2.23
2018-04-22T10:32:14.133Z,2.23
2018-04-22T10:34:42.091Z,1.87
2018-04-22T10:37:10.018Z,1.70
2018-04-22T10:39:44.893Z,2.00
2018-04-22T10:42:12.905Z,1.77
2018-04-22T10:44:40.863Z,2.00
2018-04-22T10:47:08.793Z,1.60
2018-04-22T10:49:36.737Z,1.83
2018-04-22T10:52:04.771Z,10.57
2018-04-22T10:54:32.725Z,2.83
2018-04-22T10:57:00.638Z,4.30
2018-04-22T10:59:28.574Z,23.80
2018-04-22T11:01:56.514Z,16.17
2018-04-22T11:04:24.461Z,24.43
2018-04-22T11:06:52.401Z,4.20
2018-04-22T11:09:20.317Z,1.40
2018-04-22T11:11:48.262Z,8.53
2018-04-22T11:14:16.229Z,20.70
2018-04-22T11:16:44.193Z,25.70
2018-04-22T11:19:12.141Z,25.00
2018-04-22T11:21:47.082Z,4.00
2018-04-22T11:24:14.973Z,1.60
2018-04-22T11:26:42.922Z,5.80
2018-04-22T11:29:10.867Z,1.60
2018-04-22T11:31:38.810Z,1.43
2018-04-22T11:34:06.698Z,1.20
2018-04-22T11:36:34.633Z,9.13
2018-04-22T11:39:02.565Z,2.10
2018-04-22T11:41:30.478Z,2.13
2018-04-22T11:43:58.473Z,1.63
2018-04-22T11:46:26.410Z,1.30
2018-04-22T11:48:54.330Z,1.27
2018-04-22T11:51:22.232Z,1.20
2018-04-22T11:53:50.181Z,1.40
2018-04-22T11:56:18.130Z,1.23
2018-04-22T11:58:46.088Z,1.20
2018-04-22T12:01:14.551Z,1.47
2018-04-22T12:03:42.493Z,1.80
2018-04-22T12:06:10.489Z,1.67
2018-04-22T12:08:38.393Z,2.37
2018-04-22T12:11:06.310Z,1.13
2018-04-22T12:13:34.271Z,0.90
2018-04-22T12:16:02.239Z,1.60
2018-04-22T12:18:30.162Z,1.40
2018-04-22T12:20:58.116Z,1.50
2018-04-22T12:23:26.014Z,1.40
2018-04-22T12:25:55.234Z,3.10
2018-04-22T12:28:25.867Z,28.93
2018-04-22T12:30:55.701Z,8.27
2018-04-22T12:33:25.914Z,23.00
2018-04-22T12:35:54.493Z,57.00
2018-04-22T12:38:22.552Z,100.83
2018-04-22T12:40:52.903Z,4.63
2018-04-22T12:43:23.661Z,1.77
2018-04-22T12:45:52.405Z,1.37
2018-04-22T12:48:20.312Z,2.20
2018-04-22T12:50:48.202Z,1.37
2018-04-22T12:53:16.101Z,2.03
2018-04-22T12:55:44.041Z,2.10
2018-04-22T12:58:11.973Z,1.27
2018-04-22T13:00:39.918Z,1.20
2018-04-22T13:03:07.833Z,1.73
2018-04-22T13:05:35.730Z,1.20
2018-04-22T13:08:03.658Z,1.10
2018-04-22T13:10:31.573Z,2.53
2018-04-22T13:12:59.480Z,1.97
2018-04-22T13:15:27.410Z,1.57
2018-04-22T13:17:55.362Z,1.80
2018-04-22T13:20:23.264Z,1.50
2018-04-22T13:22:51.166Z,1.13
2018-04-22T13:25:19.065Z,1.63
2018-04-22T13:27:46.952Z,1.67
2018-04-22T13:30:14.830Z,1.40
2018-04-22T13:32:42.945Z,1.07
2018-04-22T13:35:10.841Z,1.10
2018-04-22T13:37:38.781Z,1.57
2018-04-22T13:40:06.730Z,1.40
2018-04-22T13:42:34.626Z,1.30
2018-04-22T13:45:02.548Z,1.60
2018-04-22T13:47:30.469Z,2.00
2018-04-22T13:49:58.364Z,3.00
2018-04-22T13:52:26.261Z,1.43
2018-04-22T13:54:54.158Z,1.20
2018-04-22T13:57:22.101Z,1.87
2018-04-22T13:59:49.997Z,1.83
2018-04-22T14:02:17.892Z,2.00
2018-04-22T14:04:45.826Z,1.23
2018-04-22T14:07:13.733Z,1.20
2018-04-22T14:09:41.660Z,1.10
2018-04-22T14:12:09.550Z,1.17
2018-04-22T14:14:37.462Z,1.37
2018-04-22T14:17:05.359Z,1.80
2018-04-22T14:19:33.274Z,2.50
2018-04-22T14:22:01.157Z,1.63
2018-04-22T14:24:29.042Z,1.63
2018-04-22T14:26:56.954Z,1.20
2018-04-22T14:29:24.841Z,1.40
2018-04-22T14:31:52.730Z,1.40
2018-04-22T14:34:20.623Z,1.37
2018-04-22T14:36:48.556Z,1.40
2018-04-22T14:39:16.717Z,1.43
2018-04-22T14:41:44.601Z,1.43
2018-04-22T14:44:18.607Z,1.33
2018-04-22T14:46:46.505Z,1.47
2018-04-22T14:49:14.397Z,1.70
2018-04-22T14:51:42.318Z,1.50
2018-04-22T14:54:10.244Z,1.10
2018-04-22T14:56:38.134Z,1.60
2018-04-22T14:59:06.051Z,1.60
2018-04-22T15:01:33.950Z,1.97
2018-04-22T15:04:01.850Z,1.17
2018-04-22T15:06:29.790Z,1.20
2018-04-22T15:08:57.702Z,1.20
2018-04-22T15:11:25.606Z,1.10
2018-04-22T15:13:53.524Z,1.23
2018-04-22T15:16:21.417Z,1.70
2018-04-22T15:18:49.409Z,1.67
2018-04-22T15:21:17.338Z,1.07
2018-04-22T15:23:45.230Z,2.10
2018-04-22T15:26:13.127Z,1.50
2018-04-22T15:28:41.043Z,1.50
2018-04-22T15:31:08.987Z,1.50
2018-04-22T15:33:36.906Z,1.60
2018-04-22T15:36:04.801Z,1.40
2018-04-22T15:38:32.725Z,1.80
2018-04-22T15:41:00.617Z,1.90
2018-04-22T15:43:28.508Z,1.93
2018-04-22T15:45:56.390Z,1.77
2018-04-22T15:48:24.281Z,1.40
2018-04-22T15:50:52.186Z,2.03
2018-04-22T15:53:20.092Z,2.23
2018-04-22T15:55:47.973Z,1.87
2018-04-22T15:58:15.877Z,1.77
2018-04-22T16:00:43.791Z,2.00
2018-04-22T16:03:11.700Z,1.80
2018-04-22T16:05:39.593Z,1.87
2018-04-22T16:08:07.490Z,2.13
2018-04-22T16:10:35.409Z,1.77
2018-04-22T16:13:03.293Z,2.33
2018-04-22T16:15:31.217Z,2.20
2018-04-22T16:17:59.117Z,2.20
2018-04-22T16:20:26.998Z,2.00
2018-04-22T16:22:54.918Z,2.40
2018-04-22T16:25:22.827Z,3.30
2018-04-22T16:27:50.883Z,2.50
2018-04-22T16:30:18.821Z,3.50
2018-04-22T16:32:46.697Z,3.20
2018-04-22T16:35:14.644Z,2.73
2018-04-22T16:37:42.532Z,2.17
2018-04-22T16:40:10.463Z,2.93
2018-04-22T16:42:38.378Z,2.50
2018-04-22T16:45:06.304Z,3.00
2018-04-22T16:47:34.241Z,2.63
2018-04-22T16:50:02.159Z,2.40
2018-04-22T16:52:30.086Z,2.30
2018-04-22T16:54:57.973Z,2.80
2018-04-22T16:57:25.854Z,2.00
2018-04-22T16:59:53.773Z,2.10
2018-04-22T17:02:21.653Z,2.07
2018-04-22T17:04:49.545Z,2.13
2018-04-22T17:07:17.435Z,2.13
2018-04-22T17:09:45.341Z,2.03
2018-04-22T17:12:13.226Z,1.93
2018-04-22T17:14:41.127Z,3.50
2018-04-22T17:17:09.015Z,2.57
2018-04-22T17:19:36.945Z,2.70
2018-04-22T17:22:04.837Z,2.83
2018-04-22T17:24:32.747Z,2.60
2018-04-22T17:27:00.636Z,2.27
2018-04-22T17:29:28.547Z,2.60
2018-04-22T17:31:56.441Z,2.60
2018-04-22T17:34:24.346Z,1.90
2018-04-22T17:36:52.255Z,2.10
2018-04-22T17:39:20.171Z,3.10
2018-04-22T17:41:48.057Z,3.37
2018-04-22T17:44:15.982Z,3.27
2018-04-22T17:46:44.135Z,3.27
2018-04-22T17:49:12.146Z,3.60
2018-04-22T17:51:40.065Z,3.20
2018-04-22T17:54:07.970Z,4.80
2018-04-22T17:59:00.471Z,4.90
2018-04-22T18:01:28.361Z,4.17
2018-04-22T18:03:56.250Z,4.40
2018-04-22T18:06:24.138Z,5.77
2018-04-22T18:08:52.060Z,7.60
2018-04-22T18:11:19.984Z,6.23
2018-04-22T18:13:47.870Z,6.07
2018-04-22T18:16:15.756Z,5.60
2018-04-22T18:18:43.653Z,4.03
2018-04-22T18:21:11.541Z,4.63
2018-04-22T18:23:39.457Z,4.97
2018-04-22T18:26:07.358Z,5.07
2018-04-22T18:28:35.320Z,5.80
2018-04-22T18:31:03.201Z,5.20
2018-04-22T18:33:31.328Z,7.30
2018-04-22T18:35:59.298Z,5.53
2018-04-22T18:38:27.202Z,5.00
2018-04-22T18:40:55.105Z,5.07
2018-04-22T18:43:23.066Z,6.23
2018-04-22T18:45:50.973Z,5.30
2018-04-22T18:48:18.853Z,5.27
2018-04-22T18:50:46.757Z,5.47
2018-04-22T18:53:14.655Z,5.53
2018-04-22T18:55:42.574Z,5.63
2018-04-22T18:58:10.505Z,4.47
2018-04-22T19:00:38.409Z,5.40
2018-04-22T19:03:06.318Z,5.67
2018-04-22T19:05:34.241Z,5.17
2018-04-22T19:08:02.130Z,4.57
2018-04-22T19:10:30.050Z,5.40
2018-04-22T19:12:57.954Z,14.37
2018-04-22T19:15:25.837Z,6.97
2018-04-22T19:17:53.738Z,5.33
2018-04-22T19:20:21.658Z,5.40
2018-04-22T19:22:49.600Z,6.53
2018-04-22T19:25:17.513Z,5.50
2018-04-22T19:27:45.402Z,5.70
2018-04-22T19:30:13.333Z,5.67
2018-04-22T19:32:41.274Z,5.77
2018-04-22T19:35:09.195Z,4.90
2018-04-22T19:37:37.084Z,5.50
2018-04-22T19:40:05.005Z,5.73
2018-04-22T19:42:32.975Z,4.90
2018-04-22T19:45:00.899Z,5.40
2018-04-22T19:47:28.823Z,5.37
2018-04-22T19:49:56.726Z,9.73
2018-04-22T19:52:24.633Z,5.37
2018-04-22T19:54:52.553Z,6.40
2018-04-22T19:57:20.473Z,5.80
2018-04-22T19:59:48.369Z,5.30
2018-04-22T20:02:16.273Z,6.03
2018-04-22T20:04:44.195Z,6.23
2018-04-22T20:07:12.102Z,5.67
2018-04-22T20:09:39.997Z,6.30
2018-04-22T20:12:07.890Z,5.90
2018-04-22T20:14:35.781Z,6.43
2018-04-22T20:17:03.677Z,5.10
2018-04-22T20:19:31.570Z,6.03
2018-04-22T20:21:59.566Z,6.63
2018-04-22T20:24:27.698Z,5.60
2018-04-22T20:26:55.605Z,5.33
2018-04-22T20:29:23.492Z,5.70
2018-04-22T20:31:51.391Z,5.70
2018-04-22T20:34:19.375Z,5.77
2018-04-22T20:36:47.302Z,5.37
2018-04-22T20:39:15.218Z,4.73
2018-04-22T20:41:43.118Z,5.47
2018-04-22T20:44:11.042Z,5.90
2018-04-22T20:46:38.926Z,5.60
2018-04-22T20:49:06.829Z,6.10
2018-04-22T20:51:34.714Z,6.03
2018-04-22T20:54:02.620Z,5.90
2018-04-22T20:56:30.515Z,5.90
2018-04-22T20:58:58.406Z,5.97
2018-04-22T21:01:26.333Z,6.07
2018-04-22T21:03:54.233Z,5.80
2018-04-22T21:06:22.140Z,6.30
2018-04-22T21:08:50.061Z,5.30
2018-04-22T21:11:17.938Z,5.10
2018-04-22T21:13:45.825Z,5.80
2018-04-22T21:16:13.717Z,4.63
2018-04-22T21:18:41.615Z,6.03
2018-04-22T21:21:09.506Z,6.03
2018-04-22T21:23:37.422Z,7.87
2018-04-22T21:26:05.317Z,8.80
2018-04-22T21:28:33.239Z,10.73
2018-04-22T21:31:01.126Z,11.47
2018-04-22T21:33:29.079Z,9.10
2018-04-22T21:35:57.001Z,9.50
2018-04-22T21:38:24.925Z,9.73
2018-04-22T21:40:52.825Z,9.80
2018-04-22T21:43:20.713Z,9.53
2018-04-22T21:45:48.629Z,8.10
2018-04-22T21:48:16.514Z,7.27
2018-04-22T21:50:44.429Z,8.20
2018-04-22T21:53:12.501Z,7.37
2018-04-22T21:55:40.406Z,7.30
2018-04-22T21:58:08.292Z,6.80
2018-04-22T22:00:36.210Z,7.43
2018-04-22T22:03:04.105Z,7.47
2018-04-22T22:05:32.001Z,7.00
2018-04-22T22:07:59.902Z,7.20
2018-04-22T22:10:27.849Z,7.90
2018-04-22T22:12:55.766Z,7.50
2018-04-22T22:15:23.657Z,7.40
2018-04-22T22:17:51.557Z,7.73
2018-04-22T22:20:19.462Z,9.60
2018-04-22T22:22:47.353Z,9.43
2018-04-22T22:25:15.283Z,9.63
2018-04-22T22:27:43.178Z,9.50
2018-04-22T22:30:11.089Z,9.50
2018-04-22T22:32:38.989Z,9.80
2018-04-22T22:35:06.893Z,9.40
2018-04-22T22:37:34.786Z,10.30
2018-04-22T22:40:02.722Z,9.57
2018-04-22T22:42:30.619Z,9.80
2018-04-22T22:44:58.521Z,10.90
2018-04-22T22:47:26.441Z,11.20
2018-04-22T22:49:54.338Z,10.20
2018-04-22T22:52:22.245Z,11.30
2018-04-22T22:54:50.135Z,10.60
2018-04-22T22:57:18.023Z,10.80
2018-04-22T22:59:45.910Z,10.00
2018-04-22T23:02:13.834Z,10.13
2018-04-22T23:04:41.745Z,10.07
2018-04-22T23:07:09.641Z,11.23
2018-04-22T23:09:37.553Z,10.20
2018-04-22T23:12:05.455Z,10.97
2018-04-22T23:14:33.439Z,11.97
2018-04-22T23:17:01.346Z,11.10
2018-04-22T23:19:29.233Z,11.30
2018-04-22T23:21:57.141Z,11.00
2018-04-22T23:24:25.037Z,10.20
2018-04-22T23:26:52.937Z,10.33
2018-04-22T23:29:20.833Z,11.13
2018-04-22T23:31:48.746Z,11.60
2018-04-22T23:34:16.677Z,11.10
2018-04-22T23:36:44.610Z,11.67
2018-04-22T23:39:12.529Z,10.83
2018-04-22T23:41:40.429Z,11.00
2018-04-22T23:44:08.313Z,11.17
2018-04-22T23:46:36.218Z,11.07
2018-04-22T23:49:04.118Z,12.80
2018-04-22T23:51:32.018Z,11.80
2018-04-22T23:53:59.931Z,10.83
2018-04-22T23:56:27.846Z,11.40
2018-04-22T23:58:55.761Z,10.40
